sensor_id;sensor_type;location;lat;lon;timestamp;P1;durP1;ratioP1;P2;durP2;ratioP2
75169;SDS011;63749;49.186;9.222;2022-11-02T00:00:31;33.78;;;13.93;;
75169;SDS011;63749;49.186;9.222;2022-11-02T00:02:57;34.78;;;14.48;;
75169;SDS011;63749;49.186;9.222;2022-11-02T00:05:23;33.70;;;13.13;;
75169;SDS011;63749;49.186;9.222;2022-11-02T00:07:51;31.48;;;13.77;;
75169;SDS011;63749;49.186;9.222;2022-11-02T00:10:19;32.10;;;14.83;;
75169;SDS011;63749;49.186;9.222;2022-11-02T00:12:48;34.35;;;14.10;;
75169;SDS011;63749;49.186;9.222;2022-11-02T00:15:14;36.78;;;15.35;;
75169;SDS011;63749;49.186;9.222;2022-11-02T00:17:41;35.35;;;15.50;;
75169;SDS011;63749;49.186;9.222;2022-11-02T00:20:09;44.70;;;16.63;;
75169;SDS011;63749;49.186;9.222;2022-11-02T00:22:36;37.13;;;16.17;;
75169;SDS011;63749;49.186;9.222;2022-11-02T00:25:02;38.33;;;15.80;;
75169;SDS011;63749;49.186;9.222;2022-11-02T00:27:30;36.15;;;16.58;;
75169;SDS011;63749;49.186;9.222;2022-11-02T00:29:56;38.80;;;16.67;;
75169;SDS011;63749;49.186;9.222;2022-11-02T00:32:23;43.58;;;16.20;;
75169;SDS011;63749;49.186;9.222;2022-11-02T00:34:49;38.50;;;14.85;;
75169;SDS011;63749;49.186;9.222;2022-11-02T00:37:14;32.03;;;14.27;;
75169;SDS011;63749;49.186;9.222;2022-11-02T00:39:39;34.50;;;14.60;;
75169;SDS011;63749;49.186;9.222;2022-11-02T00:42:05;37.93;;;15.10;;
75169;SDS011;63749;49.186;9.222;2022-11-02T00:44:30;39.67;;;15.00;;
75169;SDS011;63749;49.186;9.222;2022-11-02T00:46:56;35.40;;;14.73;;
75169;SDS011;63749;49.186;9.222;2022-11-02T00:49:21;34.80;;;15.20;;
75169;SDS011;63749;49.186;9.222;2022-11-02T00:51:46;35.50;;;14.77;;
75169;SDS011;63749;49.186;9.222;2022-11-02T00:54:12;41.67;;;14.70;;
75169;SDS011;63749;49.186;9.222;2022-11-02T00:56:37;33.83;;;14.18;;
75169;SDS011;63749;49.186;9.222;2022-11-02T00:59:03;32.57;;;13.57;;
75169;SDS011;63749;49.186;9.222;2022-11-02T01:01:28;30.63;;;13.63;;
75169;SDS011;63749;49.186;9.222;2022-11-02T01:03:55;32.93;;;13.40;;
75169;SDS011;63749;49.186;9.222;2022-11-02T01:06:21;32.92;;;12.57;;
75169;SDS011;63749;49.186;9.222;2022-11-02T01:08:47;28.52;;;12.48;;
75169;SDS011;63749;49.186;9.222;2022-11-02T01:11:14;35.67;;;14.80;;
75169;SDS011;63749;49.186;9.222;2022-11-02T01:13:41;32.13;;;13.82;;
75169;SDS011;63749;49.186;9.222;2022-11-02T01:16:07;30.43;;;14.50;;
75169;SDS011;63749;49.186;9.222;2022-11-02T01:18:32;33.75;;;14.38;;
75169;SDS011;63749;49.186;9.222;2022-11-02T01:20:58;27.45;;;13.32;;
75169;SDS011;63749;49.186;9.222;2022-11-02T01:23:24;40.23;;;12.77;;
75169;SDS011;63749;49.186;9.222;2022-11-02T01:25:49;28.60;;;12.90;;
75169;SDS011;63749;49.186;9.222;2022-11-02T01:28:15;28.15;;;12.23;;
75169;SDS011;63749;49.186;9.222;2022-11-02T01:30:40;30.33;;;12.90;;
75169;SDS011;63749;49.186;9.222;2022-11-02T01:33:06;33.30;;;13.07;;
75169;SDS011;63749;49.186;9.222;2022-11-02T01:35:31;28.87;;;12.50;;
75169;SDS011;63749;49.186;9.222;2022-11-02T01:37:56;32.20;;;12.88;;
75169;SDS011;63749;49.186;9.222;2022-11-02T01:40:22;29.77;;;12.23;;
75169;SDS011;63749;49.186;9.222;2022-11-02T01:42:47;27.17;;;13.37;;
75169;SDS011;63749;49.186;9.222;2022-11-02T01:45:13;29.93;;;13.30;;
75169;SDS011;63749;49.186;9.222;2022-11-02T01:47:42;33.03;;;14.07;;
75169;SDS011;63749;49.186;9.222;2022-11-02T01:50:22;31.92;;;13.60;;
75169;SDS011;63749;49.186;9.222;2022-11-02T01:52:49;32.05;;;13.23;;
75169;SDS011;63749;49.186;9.222;2022-11-02T01:55:17;31.30;;;13.30;;
75169;SDS011;63749;49.186;9.222;2022-11-02T01:57:54;33.92;;;13.25;;
75169;SDS011;63749;49.186;9.222;2022-11-02T02:00:26;34.28;;;13.52;;
75169;SDS011;63749;49.186;9.222;2022-11-02T02:02:59;27.83;;;12.50;;
75169;SDS011;63749;49.186;9.222;2022-11-02T02:05:29;28.58;;;12.00;;
75169;SDS011;63749;49.186;9.222;2022-11-02T02:07:57;29.10;;;11.20;;
75169;SDS011;63749;49.186;9.222;2022-11-02T02:10:22;30.03;;;11.73;;
75169;SDS011;63749;49.186;9.222;2022-11-02T02:12:48;28.60;;;12.02;;
75169;SDS011;63749;49.186;9.222;2022-11-02T02:15:14;28.87;;;12.53;;
75169;SDS011;63749;49.186;9.222;2022-11-02T02:17:47;24.30;;;11.70;;
75169;SDS011;63749;49.186;9.222;2022-11-02T02:21:02;27.92;;;11.80;;
75169;SDS011;63749;49.186;9.222;2022-11-02T02:29:42;21.58;;;10.23;;
75169;SDS011;63749;49.186;9.222;2022-11-02T02:31:43;23.87;;;10.70;;
75169;SDS011;63749;49.186;9.222;2022-11-02T02:42:29;23.23;;;9.25;;
75169;SDS011;63749;49.186;9.222;2022-11-02T02:45:06;22.87;;;8.87;;
75169;SDS011;63749;49.186;9.222;2022-11-02T02:47:32;21.42;;;8.45;;
75169;SDS011;63749;49.186;9.222;2022-11-02T02:50:03;19.33;;;8.07;;
75169;SDS011;63749;49.186;9.222;2022-11-02T02:52:35;20.08;;;8.05;;
75169;SDS011;63749;49.186;9.222;2022-11-02T02:55:01;20.42;;;7.38;;
75169;SDS011;63749;49.186;9.222;2022-11-02T02:57:29;16.47;;;7.30;;
75169;SDS011;63749;49.186;9.222;2022-11-02T02:59:56;15.55;;;7.25;;
75169;SDS011;63749;49.186;9.222;2022-11-02T03:02:32;18.27;;;7.20;;
75169;SDS011;63749;49.186;9.222;2022-11-02T03:05:01;18.67;;;7.40;;
75169;SDS011;63749;49.186;9.222;2022-11-02T03:07:30;15.77;;;6.50;;
75169;SDS011;63749;49.186;9.222;2022-11-02T03:15:21;13.77;;;6.40;;
75169;SDS011;63749;49.186;9.222;2022-11-02T03:20:52;19.85;;;6.00;;
75169;SDS011;63749;49.186;9.222;2022-11-02T03:29:23;17.90;;;5.88;;
75169;SDS011;63749;49.186;9.222;2022-11-02T03:31:59;18.50;;;5.70;;
75169;SDS011;63749;49.186;9.222;2022-11-02T03:37:19;16.27;;;5.43;;
75169;SDS011;63749;49.186;9.222;2022-11-02T03:39:49;14.67;;;4.90;;
75169;SDS011;63749;49.186;9.222;2022-11-02T03:42:19;16.92;;;5.53;;
75169;SDS011;63749;49.186;9.222;2022-11-02T03:44:47;18.38;;;5.30;;
75169;SDS011;63749;49.186;9.222;2022-11-02T03:47:19;14.43;;;5.05;;
75169;SDS011;63749;49.186;9.222;2022-11-02T03:49:45;17.38;;;5.50;;
75169;SDS011;63749;49.186;9.222;2022-11-02T03:52:15;13.93;;;5.20;;
75169;SDS011;63749;49.186;9.222;2022-11-02T03:54:50;19.83;;;5.25;;
75169;SDS011;63749;49.186;9.222;2022-11-02T03:57:25;10.23;;;4.80;;
75169;SDS011;63749;49.186;9.222;2022-11-02T04:00:04;15.73;;;4.80;;
75169;SDS011;63749;49.186;9.222;2022-11-02T04:02:31;16.40;;;4.80;;
75169;SDS011;63749;49.186;9.222;2022-11-02T04:05:00;11.17;;;4.17;;
75169;SDS011;63749;49.186;9.222;2022-11-02T04:07:26;13.55;;;4.53;;
75169;SDS011;63749;49.186;9.222;2022-11-02T04:10:16;12.40;;;4.40;;
75169;SDS011;63749;49.186;9.222;2022-11-02T04:12:41;12.07;;;4.15;;
75169;SDS011;63749;49.186;9.222;2022-11-02T04:15:25;12.83;;;3.87;;
75169;SDS011;63749;49.186;9.222;2022-11-02T04:17:50;15.85;;;4.20;;
75169;SDS011;63749;49.186;9.222;2022-11-02T04:20:34;14.27;;;4.00;;
75169;SDS011;63749;49.186;9.222;2022-11-02T04:23:00;11.90;;;3.80;;
75169;SDS011;63749;49.186;9.222;2022-11-02T04:25:43;11.57;;;4.30;;
75169;SDS011;63749;49.186;9.222;2022-11-02T04:28:09;12.47;;;3.80;;
75169;SDS011;63749;49.186;9.222;2022-11-02T04:30:34;12.20;;;4.40;;
75169;SDS011;63749;49.186;9.222;2022-11-02T04:32:59;12.25;;;3.70;;
75169;SDS011;63749;49.186;9.222;2022-11-02T04:36:01;15.90;;;4.13;;
75169;SDS011;63749;49.186;9.222;2022-11-02T04:38:28;13.02;;;3.83;;
75169;SDS011;63749;49.186;9.222;2022-11-02T04:43:50;13.43;;;4.30;;
75169;SDS011;63749;49.186;9.222;2022-11-02T04:46:16;13.03;;;4.47;;
75169;SDS011;63749;49.186;9.222;2022-11-02T04:48:41;18.83;;;4.70;;
75169;SDS011;63749;49.186;9.222;2022-11-02T04:51:06;15.10;;;4.97;;
75169;SDS011;63749;49.186;9.222;2022-11-02T04:53:32;16.38;;;5.50;;
75169;SDS011;63749;49.186;9.222;2022-11-02T04:55:57;15.97;;;6.20;;
75169;SDS011;63749;49.186;9.222;2022-11-02T04:58:22;10.43;;;4.93;;
75169;SDS011;63749;49.186;9.222;2022-11-02T05:00:48;14.73;;;4.93;;
75169;SDS011;63749;49.186;9.222;2022-11-02T05:03:13;12.20;;;4.70;;
75169;SDS011;63749;49.186;9.222;2022-11-02T05:05:38;10.47;;;4.90;;
75169;SDS011;63749;49.186;9.222;2022-11-02T05:08:04;13.37;;;4.37;;
75169;SDS011;63749;49.186;9.222;2022-11-02T05:10:29;11.83;;;4.40;;
75169;SDS011;63749;49.186;9.222;2022-11-02T05:12:58;11.77;;;4.60;;
75169;SDS011;63749;49.186;9.222;2022-11-02T05:15:24;8.95;;;3.72;;
75169;SDS011;63749;49.186;9.222;2022-11-02T05:17:50;10.90;;;3.30;;
75169;SDS011;63749;49.186;9.222;2022-11-02T05:20:15;8.20;;;3.20;;
75169;SDS011;63749;49.186;9.222;2022-11-02T05:22:40;9.07;;;3.65;;
75169;SDS011;63749;49.186;9.222;2022-11-02T05:25:06;10.13;;;4.47;;
75169;SDS011;63749;49.186;9.222;2022-11-02T05:27:32;8.63;;;3.80;;
75169;SDS011;63749;49.186;9.222;2022-11-02T05:29:58;8.43;;;3.60;;
75169;SDS011;63749;49.186;9.222;2022-11-02T05:32:24;10.18;;;3.40;;
75169;SDS011;63749;49.186;9.222;2022-11-02T05:34:50;13.33;;;3.33;;
75169;SDS011;63749;49.186;9.222;2022-11-02T05:37:16;9.40;;;3.67;;
75169;SDS011;63749;49.186;9.222;2022-11-02T05:39:41;12.80;;;3.35;;
75169;SDS011;63749;49.186;9.222;2022-11-02T05:42:07;11.20;;;3.93;;
75169;SDS011;63749;49.186;9.222;2022-11-02T05:44:32;18.27;;;4.60;;
75169;SDS011;63749;49.186;9.222;2022-11-02T05:46:57;11.40;;;3.77;;
75169;SDS011;63749;49.186;9.222;2022-11-02T05:49:23;10.82;;;3.17;;
75169;SDS011;63749;49.186;9.222;2022-11-02T05:51:48;8.43;;;2.90;;
75169;SDS011;63749;49.186;9.222;2022-11-02T05:54:14;12.30;;;3.10;;
75169;SDS011;63749;49.186;9.222;2022-11-02T05:56:39;10.80;;;3.10;;
75169;SDS011;63749;49.186;9.222;2022-11-02T05:59:04;9.27;;;2.77;;
75169;SDS011;63749;49.186;9.222;2022-11-02T06:01:30;13.25;;;2.90;;
75169;SDS011;63749;49.186;9.222;2022-11-02T06:03:55;14.60;;;3.00;;
75169;SDS011;63749;49.186;9.222;2022-11-02T06:06:21;7.20;;;2.30;;
75169;SDS011;63749;49.186;9.222;2022-11-02T06:08:46;8.23;;;2.20;;
75169;SDS011;63749;49.186;9.222;2022-11-02T06:11:12;8.35;;;2.35;;
75169;SDS011;63749;49.186;9.222;2022-11-02T06:13:38;9.03;;;2.43;;
75169;SDS011;63749;49.186;9.222;2022-11-02T06:16:05;11.77;;;2.38;;
75169;SDS011;63749;49.186;9.222;2022-11-02T06:18:35;8.23;;;1.90;;
75169;SDS011;63749;49.186;9.222;2022-11-02T06:21:01;5.40;;;1.67;;
75169;SDS011;63749;49.186;9.222;2022-11-02T06:23:27;8.17;;;1.80;;
75169;SDS011;63749;49.186;9.222;2022-11-02T06:25:53;7.95;;;1.80;;
75169;SDS011;63749;49.186;9.222;2022-11-02T06:28:20;9.30;;;2.08;;
75169;SDS011;63749;49.186;9.222;2022-11-02T06:30:47;15.40;;;2.10;;
75169;SDS011;63749;49.186;9.222;2022-11-02T06:33:13;12.48;;;2.20;;
75169;SDS011;63749;49.186;9.222;2022-11-02T06:35:39;9.73;;;2.53;;
75169;SDS011;63749;49.186;9.222;2022-11-02T06:38:08;12.20;;;2.67;;
75169;SDS011;63749;49.186;9.222;2022-11-02T06:40:33;10.97;;;3.70;;
75169;SDS011;63749;49.186;9.222;2022-11-02T06:42:58;7.33;;;3.50;;
75169;SDS011;63749;49.186;9.222;2022-11-02T06:45:24;11.13;;;3.87;;
75169;SDS011;63749;49.186;9.222;2022-11-02T06:47:49;11.85;;;4.20;;
75169;SDS011;63749;49.186;9.222;2022-11-02T06:50:15;9.27;;;3.60;;
75169;SDS011;63749;49.186;9.222;2022-11-02T06:52:42;9.15;;;3.05;;
75169;SDS011;63749;49.186;9.222;2022-11-02T06:55:08;9.25;;;3.13;;
75169;SDS011;63749;49.186;9.222;2022-11-02T06:57:34;13.05;;;2.90;;
75169;SDS011;63749;49.186;9.222;2022-11-02T07:00:01;7.00;;;2.33;;
75169;SDS011;63749;49.186;9.222;2022-11-02T07:02:28;7.90;;;2.30;;
75169;SDS011;63749;49.186;9.222;2022-11-02T07:04:54;8.38;;;2.90;;
75169;SDS011;63749;49.186;9.222;2022-11-02T07:07:20;8.23;;;2.53;;
75169;SDS011;63749;49.186;9.222;2022-11-02T07:09:46;10.10;;;2.33;;
75169;SDS011;63749;49.186;9.222;2022-11-02T07:12:11;9.23;;;2.47;;
75169;SDS011;63749;49.186;9.222;2022-11-02T07:14:37;8.55;;;2.42;;
75169;SDS011;63749;49.186;9.222;2022-11-02T07:17:02;7.97;;;2.57;;
75169;SDS011;63749;49.186;9.222;2022-11-02T07:19:28;9.63;;;2.73;;
75169;SDS011;63749;49.186;9.222;2022-11-02T07:21:53;9.03;;;2.80;;
75169;SDS011;63749;49.186;9.222;2022-11-02T07:24:18;10.27;;;3.00;;
75169;SDS011;63749;49.186;9.222;2022-11-02T07:26:46;12.55;;;2.90;;
75169;SDS011;63749;49.186;9.222;2022-11-02T07:29:17;11.47;;;3.00;;
75169;SDS011;63749;49.186;9.222;2022-11-02T07:31:43;11.52;;;3.03;;
75169;SDS011;63749;49.186;9.222;2022-11-02T07:34:09;12.02;;;3.08;;
75169;SDS011;63749;49.186;9.222;2022-11-02T07:36:35;9.63;;;2.40;;
75169;SDS011;63749;49.186;9.222;2022-11-02T07:39:00;7.47;;;2.50;;
75169;SDS011;63749;49.186;9.222;2022-11-02T07:41:26;9.73;;;2.90;;
75169;SDS011;63749;49.186;9.222;2022-11-02T07:43:51;12.10;;;2.90;;
75169;SDS011;63749;49.186;9.222;2022-11-02T07:46:16;10.87;;;2.50;;
75169;SDS011;63749;49.186;9.222;2022-11-02T07:48:42;7.93;;;2.28;;
75169;SDS011;63749;49.186;9.222;2022-11-02T07:51:08;7.20;;;2.07;;
75169;SDS011;63749;49.186;9.222;2022-11-02T07:53:35;12.10;;;2.10;;
75169;SDS011;63749;49.186;9.222;2022-11-02T07:56:00;13.00;;;2.17;;
75169;SDS011;63749;49.186;9.222;2022-11-02T07:58:27;8.15;;;1.75;;
75169;SDS011;63749;49.186;9.222;2022-11-02T08:00:55;6.10;;;1.70;;
75169;SDS011;63749;49.186;9.222;2022-11-02T08:03:21;12.18;;;1.73;;
75169;SDS011;63749;49.186;9.222;2022-11-02T08:05:47;8.87;;;2.07;;
75169;SDS011;63749;49.186;9.222;2022-11-02T08:08:13;10.57;;;2.10;;
75169;SDS011;63749;49.186;9.222;2022-11-02T08:10:40;7.30;;;1.60;;
75169;SDS011;63749;49.186;9.222;2022-11-02T08:13:07;11.52;;;1.50;;
75169;SDS011;63749;49.186;9.222;2022-11-02T08:15:34;15.80;;;2.05;;
75169;SDS011;63749;49.186;9.222;2022-11-02T08:18:00;13.53;;;1.60;;
75169;SDS011;63749;49.186;9.222;2022-11-02T08:20:29;12.30;;;1.60;;
75169;SDS011;63749;49.186;9.222;2022-11-02T08:22:55;14.55;;;1.77;;
75169;SDS011;63749;49.186;9.222;2022-11-02T08:25:21;11.67;;;1.60;;
75169;SDS011;63749;49.186;9.222;2022-11-02T08:27:48;7.32;;;1.50;;
75169;SDS011;63749;49.186;9.222;2022-11-02T08:30:13;11.90;;;2.13;;
75169;SDS011;63749;49.186;9.222;2022-11-02T08:32:39;9.07;;;1.83;;
75169;SDS011;63749;49.186;9.222;2022-11-02T08:35:04;7.93;;;1.93;;
75169;SDS011;63749;49.186;9.222;2022-11-02T08:37:30;5.78;;;1.48;;
75169;SDS011;63749;49.186;9.222;2022-11-02T08:39:55;12.90;;;1.73;;
75169;SDS011;63749;49.186;9.222;2022-11-02T08:42:20;14.63;;;2.03;;
75169;SDS011;63749;49.186;9.222;2022-11-02T08:44:46;10.00;;;1.70;;
75169;SDS011;63749;49.186;9.222;2022-11-02T08:47:11;10.32;;;1.83;;
75169;SDS011;63749;49.186;9.222;2022-11-02T08:49:37;6.87;;;1.60;;
75169;SDS011;63749;49.186;9.222;2022-11-02T08:52:03;8.65;;;1.70;;
75169;SDS011;63749;49.186;9.222;2022-11-02T08:54:28;6.97;;;1.50;;
75169;SDS011;63749;49.186;9.222;2022-11-02T08:56:53;9.20;;;1.70;;
75169;SDS011;63749;49.186;9.222;2022-11-02T08:59:19;6.97;;;1.70;;
75169;SDS011;63749;49.186;9.222;2022-11-02T09:01:44;7.43;;;1.50;;
75169;SDS011;63749;49.186;9.222;2022-11-02T09:04:09;8.55;;;1.92;;
75169;SDS011;63749;49.186;9.222;2022-11-02T09:06:35;6.47;;;1.50;;
75169;SDS011;63749;49.186;9.222;2022-11-02T09:09:00;14.60;;;1.87;;
75169;SDS011;63749;49.186;9.222;2022-11-02T09:11:25;8.50;;;1.90;;
75169;SDS011;63749;49.186;9.222;2022-11-02T09:13:51;16.87;;;2.60;;
75169;SDS011;63749;49.186;9.222;2022-11-02T09:16:16;11.18;;;2.00;;
75169;SDS011;63749;49.186;9.222;2022-11-02T09:18:41;8.93;;;2.10;;
75169;SDS011;63749;49.186;9.222;2022-11-02T09:21:07;12.10;;;1.80;;
75169;SDS011;63749;49.186;9.222;2022-11-02T09:23:33;10.15;;;1.80;;
75169;SDS011;63749;49.186;9.222;2022-11-02T09:25:58;11.97;;;1.90;;
75169;SDS011;63749;49.186;9.222;2022-11-02T09:28:24;13.87;;;1.73;;
75169;SDS011;63749;49.186;9.222;2022-11-02T09:30:49;8.53;;;1.70;;
75169;SDS011;63749;49.186;9.222;2022-11-02T09:33:15;11.20;;;1.90;;
75169;SDS011;63749;49.186;9.222;2022-11-02T09:35:41;6.27;;;1.60;;
75169;SDS011;63749;49.186;9.222;2022-11-02T09:38:08;9.52;;;1.83;;
75169;SDS011;63749;49.186;9.222;2022-11-02T09:40:35;9.97;;;1.70;;
75169;SDS011;63749;49.186;9.222;2022-11-02T09:43:12;12.25;;;1.70;;
75169;SDS011;63749;49.186;9.222;2022-11-02T09:46:00;9.52;;;1.70;;
75169;SDS011;63749;49.186;9.222;2022-11-02T09:48:44;10.80;;;1.83;;
75169;SDS011;63749;49.186;9.222;2022-11-02T09:51:13;9.50;;;1.85;;
75169;SDS011;63749;49.186;9.222;2022-11-02T09:56:31;9.48;;;1.67;;
75169;SDS011;63749;49.186;9.222;2022-11-02T09:59:03;9.23;;;1.88;;
75169;SDS011;63749;49.186;9.222;2022-11-02T10:01:49;7.82;;;1.48;;
75169;SDS011;63749;49.186;9.222;2022-11-02T10:07:28;7.93;;;1.93;;
75169;SDS011;63749;49.186;9.222;2022-11-02T10:10:14;8.98;;;1.92;;
75169;SDS011;63749;49.186;9.222;2022-11-02T10:15:49;17.40;;;1.95;;
75169;SDS011;63749;49.186;9.222;2022-11-02T10:18:19;13.68;;;2.00;;
75169;SDS011;63749;49.186;9.222;2022-11-02T10:20:50;9.90;;;1.90;;
75169;SDS011;63749;49.186;9.222;2022-11-02T10:23:40;8.98;;;1.50;;
75169;SDS011;63749;49.186;9.222;2022-11-02T10:26:05;5.00;;;1.48;;
75169;SDS011;63749;49.186;9.222;2022-11-02T10:28:33;15.52;;;2.10;;
75169;SDS011;63749;49.186;9.222;2022-11-02T10:31:02;12.57;;;1.80;;
75169;SDS011;63749;49.186;9.222;2022-11-02T10:33:28;7.77;;;1.60;;
75169;SDS011;63749;49.186;9.222;2022-11-02T10:39:07;12.97;;;1.73;;
75169;SDS011;63749;49.186;9.222;2022-11-02T10:46:59;7.40;;;1.92;;
75169;SDS011;63749;49.186;9.222;2022-11-02T10:52:03;9.60;;;1.90;;
75169;SDS011;63749;49.186;9.222;2022-11-02T10:54:29;7.03;;;1.75;;
75169;SDS011;63749;49.186;9.222;2022-11-02T10:56:54;9.17;;;1.60;;
75169;SDS011;63749;49.186;9.222;2022-11-02T10:59:20;20.30;;;2.20;;
75169;SDS011;63749;49.186;9.222;2022-11-02T11:04:22;7.70;;;2.20;;
75169;SDS011;63749;49.186;9.222;2022-11-02T11:06:49;7.88;;;1.80;;
75169;SDS011;63749;49.186;9.222;2022-11-02T11:09:19;9.40;;;1.60;;
75169;SDS011;63749;49.186;9.222;2022-11-02T11:11:54;11.02;;;2.00;;
75169;SDS011;63749;49.186;9.222;2022-11-02T11:14:22;9.65;;;1.73;;
75169;SDS011;63749;49.186;9.222;2022-11-02T11:16:53;10.67;;;1.60;;
75169;SDS011;63749;49.186;9.222;2022-11-02T11:19:21;9.65;;;1.92;;
75169;SDS011;63749;49.186;9.222;2022-11-02T11:21:58;10.52;;;1.90;;
75169;SDS011;63749;49.186;9.222;2022-11-02T11:24:27;8.87;;;1.90;;
75169;SDS011;63749;49.186;9.222;2022-11-02T11:29:29;9.30;;;2.10;;
75169;SDS011;63749;49.186;9.222;2022-11-02T11:31:56;7.10;;;1.90;;
75169;SDS011;63749;49.186;9.222;2022-11-02T11:34:24;8.68;;;1.70;;
75169;SDS011;63749;49.186;9.222;2022-11-02T11:36:50;9.27;;;1.70;;
75169;SDS011;63749;49.186;9.222;2022-11-02T11:39:25;9.32;;;1.60;;
75169;SDS011;63749;49.186;9.222;2022-11-02T11:41:52;12.25;;;1.70;;
75169;SDS011;63749;49.186;9.222;2022-11-02T11:44:18;7.37;;;1.50;;
75169;SDS011;63749;49.186;9.222;2022-11-02T11:46:46;10.20;;;1.83;;
75169;SDS011;63749;49.186;9.222;2022-11-02T11:49:31;10.93;;;1.58;;
75169;SDS011;63749;49.186;9.222;2022-11-02T11:51:59;8.82;;;1.50;;
75169;SDS011;63749;49.186;9.222;2022-11-02T11:54:27;8.77;;;1.80;;
75169;SDS011;63749;49.186;9.222;2022-11-02T11:56:57;7.20;;;1.50;;
75169;SDS011;63749;49.186;9.222;2022-11-02T12:00:22;9.05;;;1.55;;
75169;SDS011;63749;49.186;9.222;2022-11-02T12:03:01;9.48;;;1.75;;
75169;SDS011;63749;49.186;9.222;2022-11-02T12:05:33;6.95;;;1.40;;
75169;SDS011;63749;49.186;9.222;2022-11-02T12:10:50;6.20;;;1.67;;
75169;SDS011;63749;49.186;9.222;2022-11-02T12:13:50;11.98;;;1.70;;
75169;SDS011;63749;49.186;9.222;2022-11-02T12:16:50;11.02;;;1.60;;
75169;SDS011;63749;49.186;9.222;2022-11-02T12:28:12;10.23;;;1.52;;
75169;SDS011;63749;49.186;9.222;2022-11-02T12:47:40;10.05;;;1.70;;
75169;SDS011;63749;49.186;9.222;2022-11-02T12:50:29;8.00;;;1.60;;
75169;SDS011;63749;49.186;9.222;2022-11-02T12:53:33;5.93;;;1.50;;
75169;SDS011;63749;49.186;9.222;2022-11-02T12:56:02;8.32;;;1.48;;
75169;SDS011;63749;49.186;9.222;2022-11-02T12:58:32;10.65;;;1.90;;
75169;SDS011;63749;49.186;9.222;2022-11-02T13:01:09;7.88;;;1.60;;
75169;SDS011;63749;49.186;9.222;2022-11-02T13:06:13;9.83;;;2.13;;
75169;SDS011;63749;49.186;9.222;2022-11-02T13:08:43;6.32;;;2.40;;
75169;SDS011;63749;49.186;9.222;2022-11-02T13:11:17;9.45;;;2.55;;
75169;SDS011;63749;49.186;9.222;2022-11-02T13:13:50;7.53;;;2.30;;
75169;SDS011;63749;49.186;9.222;2022-11-02T13:16:23;8.30;;;2.70;;
75169;SDS011;63749;49.186;9.222;2022-11-02T13:18:59;7.07;;;2.60;;
75169;SDS011;63749;49.186;9.222;2022-11-02T13:21:38;7.97;;;2.38;;
75169;SDS011;63749;49.186;9.222;2022-11-02T13:24:06;7.65;;;2.60;;
75169;SDS011;63749;49.186;9.222;2022-11-02T13:26:38;9.45;;;2.70;;
75169;SDS011;63749;49.186;9.222;2022-11-02T13:32:02;8.47;;;2.63;;
75169;SDS011;63749;49.186;9.222;2022-11-02T13:34:42;8.95;;;2.60;;
75169;SDS011;63749;49.186;9.222;2022-11-02T13:37:10;6.25;;;2.30;;
75169;SDS011;63749;49.186;9.222;2022-11-02T13:39:41;8.55;;;2.50;;
75169;SDS011;63749;49.186;9.222;2022-11-02T13:42:21;7.20;;;2.38;;
75169;SDS011;63749;49.186;9.222;2022-11-02T13:50:20;6.82;;;2.30;;
75169;SDS011;63749;49.186;9.222;2022-11-02T13:52:53;7.90;;;2.60;;
75169;SDS011;63749;49.186;9.222;2022-11-02T13:55:22;7.63;;;2.20;;
75169;SDS011;63749;49.186;9.222;2022-11-02T13:57:52;6.63;;;2.40;;
75169;SDS011;63749;49.186;9.222;2022-11-02T14:02:47;8.47;;;2.40;;
75169;SDS011;63749;49.186;9.222;2022-11-02T14:05:31;8.02;;;2.55;;
75169;SDS011;63749;49.186;9.222;2022-11-02T14:08:08;8.30;;;2.50;;
75169;SDS011;63749;49.186;9.222;2022-11-02T14:10:41;6.00;;;2.40;;
75169;SDS011;63749;49.186;9.222;2022-11-02T14:13:12;8.63;;;2.57;;
75169;SDS011;63749;49.186;9.222;2022-11-02T14:15:39;9.98;;;2.72;;
75169;SDS011;63749;49.186;9.222;2022-11-02T14:20:44;7.03;;;2.42;;
75169;SDS011;63749;49.186;9.222;2022-11-02T14:25:55;12.05;;;2.67;;
75169;SDS011;63749;49.186;9.222;2022-11-02T14:45:23;8.47;;;2.33;;
75169;SDS011;63749;49.186;9.222;2022-11-02T14:47:58;10.63;;;2.50;;
75169;SDS011;63749;49.186;9.222;2022-11-02T14:50:26;7.72;;;2.50;;
75169;SDS011;63749;49.186;9.222;2022-11-02T14:52:53;10.43;;;2.40;;
75169;SDS011;63749;49.186;9.222;2022-11-02T14:55:25;9.65;;;2.40;;
75169;SDS011;63749;49.186;9.222;2022-11-02T14:57:57;11.52;;;2.60;;
75169;SDS011;63749;49.186;9.222;2022-11-02T15:00:25;7.22;;;2.10;;
75169;SDS011;63749;49.186;9.222;2022-11-02T15:02:52;6.43;;;1.63;;
75169;SDS011;63749;49.186;9.222;2022-11-02T15:05:22;7.07;;;1.67;;
75169;SDS011;63749;49.186;9.222;2022-11-02T15:07:49;6.60;;;1.67;;
75169;SDS011;63749;49.186;9.222;2022-11-02T15:12:43;11.88;;;1.60;;
75169;SDS011;63749;49.186;9.222;2022-11-02T15:23:40;9.40;;;1.60;;
75169;SDS011;63749;49.186;9.222;2022-11-02T15:26:11;6.63;;;1.48;;
75169;SDS011;63749;49.186;9.222;2022-11-02T15:28:42;9.20;;;1.83;;
75169;SDS011;63749;49.186;9.222;2022-11-02T15:31:15;6.75;;;1.60;;
75169;SDS011;63749;49.186;9.222;2022-11-02T15:33:44;8.23;;;1.67;;
75169;SDS011;63749;49.186;9.222;2022-11-02T15:36:23;8.75;;;1.60;;
75169;SDS011;63749;49.186;9.222;2022-11-02T15:39:00;7.68;;;1.50;;
75169;SDS011;63749;49.186;9.222;2022-11-02T15:41:33;6.57;;;1.53;;
75169;SDS011;63749;49.186;9.222;2022-11-02T15:46:42;7.93;;;1.50;;
75169;SDS011;63749;49.186;9.222;2022-11-02T15:49:23;7.47;;;1.70;;
75169;SDS011;63749;49.186;9.222;2022-11-02T15:57:10;7.90;;;1.55;;
75169;SDS011;63749;49.186;9.222;2022-11-02T16:02:23;9.05;;;1.80;;
75169;SDS011;63749;49.186;9.222;2022-11-02T16:04:51;8.13;;;1.50;;
75169;SDS011;63749;49.186;9.222;2022-11-02T16:07:19;6.53;;;1.50;;
75169;SDS011;63749;49.186;9.222;2022-11-02T16:09:45;11.13;;;1.80;;
75169;SDS011;63749;49.186;9.222;2022-11-02T16:12:23;9.53;;;1.80;;
75169;SDS011;63749;49.186;9.222;2022-11-02T16:14:59;9.53;;;2.00;;
75169;SDS011;63749;49.186;9.222;2022-11-02T16:17:33;11.52;;;2.00;;
75169;SDS011;63749;49.186;9.222;2022-11-02T16:22:55;10.18;;;2.33;;
75169;SDS011;63749;49.186;9.222;2022-11-02T16:25:31;13.48;;;2.75;;
75169;SDS011;63749;49.186;9.222;2022-11-02T16:28:10;15.13;;;3.83;;
75169;SDS011;63749;49.186;9.222;2022-11-02T16:30:42;15.65;;;4.50;;
75169;SDS011;63749;49.186;9.222;2022-11-02T16:33:10;13.97;;;4.80;;
75169;SDS011;63749;49.186;9.222;2022-11-02T16:35:36;13.05;;;4.93;;
75169;SDS011;63749;49.186;9.222;2022-11-02T16:38:01;13.85;;;4.38;;
75169;SDS011;63749;49.186;9.222;2022-11-02T16:40:27;14.27;;;4.10;;
75169;SDS011;63749;49.186;9.222;2022-11-02T16:42:53;12.90;;;3.50;;
75169;SDS011;63749;49.186;9.222;2022-11-02T16:45:33;15.43;;;3.70;;
75169;SDS011;63749;49.186;9.222;2022-11-02T16:48:00;14.15;;;3.63;;
75169;SDS011;63749;49.186;9.222;2022-11-02T16:50:27;12.38;;;3.00;;
75169;SDS011;63749;49.186;9.222;2022-11-02T16:55:35;11.47;;;3.60;;
75169;SDS011;63749;49.186;9.222;2022-11-02T16:58:01;15.77;;;4.72;;
75169;SDS011;63749;49.186;9.222;2022-11-02T17:00:27;16.70;;;4.43;;
75169;SDS011;63749;49.186;9.222;2022-11-02T17:02:53;15.17;;;4.47;;
75169;SDS011;63749;49.186;9.222;2022-11-02T17:05:23;14.73;;;3.75;;
75169;SDS011;63749;49.186;9.222;2022-11-02T17:10:29;13.82;;;4.55;;
75169;SDS011;63749;49.186;9.222;2022-11-02T17:12:56;11.13;;;3.67;;
75169;SDS011;63749;49.186;9.222;2022-11-02T17:15:22;15.40;;;4.30;;
75169;SDS011;63749;49.186;9.222;2022-11-02T17:17:50;14.32;;;3.80;;
75169;SDS011;63749;49.186;9.222;2022-11-02T17:20:35;16.23;;;3.90;;
75169;SDS011;63749;49.186;9.222;2022-11-02T17:23:03;15.48;;;3.88;;